»·PEaware :: GBTON KABQ-KFLG

GBTON :: KABQ-KFLG

FLIGHT INFORMATION

Flight Status: Arrived
Operator: Unknown
More flights by this operator :: More flights under this callsign
Pilot: Matthew M. (8235)
Aircraft: CESSNA 172 SKYHAWK
(C172)
More flights by this aircraft type
Origin: KABQ Albuquerque Intl Sunport
United States
Destination: KFLG Flagstaff Pulliam
United States
More flights between these airports :: More routes between these airports
Route: ABQ V12 INW
File this flight plan on PilotEdge
Remarks:
Altitude:
(Current/Filed)
10,000ft
Speed:
(Current/Filed)
100kts
Departed: 01-Aug-20 12:41 AM
Arrived: 01-Aug-20 02:49 AM
Distance/Time
Traveled:
249nm/2:07
Distance/Time
To Go:
Arrived

Flight Plot

Page will automatically refresh every two minutes.


Map Options




Map Legend


Flown Route
Filed Route
Departure Airport
Arrival Airport
Navaid (VOR, NDB)
Fix

Horizontal Profiles

Position Reports

Time Latitude Longitude Heading Altitude Ground
Speed
01-Aug-20 00:35 35.038985 -106.618177 352 5313ft 0kts
01-Aug-20 00:36 35.039029 -106.618184 349 5313ft 1kts
01-Aug-20 00:37 35.039728 -106.620276 273 5313ft 11kts
01-Aug-20 00:38 35.041543 -106.621412 359 5313ft 6kts
01-Aug-20 00:39 35.043933 -106.621381 359 5313ft 10kts
01-Aug-20 00:40 35.038564 -106.613187 130 5369ft 66kts
01-Aug-20 00:41 35.028547 -106.625763 263 5772ft 88kts
01-Aug-20 00:42 35.030172 -106.657393 271 6157ft 93kts
01-Aug-20 00:43 35.032947 -106.689616 273 6596ft 90kts
01-Aug-20 00:44 35.035661 -106.721507 273 6955ft 96kts
01-Aug-20 00:45 35.038513 -106.755315 274 7328ft 97kts
01-Aug-20 00:46 35.041301 -106.788089 274 7727ft 93kts
01-Aug-20 00:47 35.045618 -106.819101 313 8127ft 87kts
01-Aug-20 00:48 35.059513 -106.842835 273 8516ft 81kts
01-Aug-20 00:49 35.044216 -106.846764 107 8757ft 80kts
01-Aug-20 00:50 35.043825 -106.818092 89 9061ft 83kts
01-Aug-20 00:51 35.048099 -106.826245 244 9366ft 86kts
01-Aug-20 00:52 35.042917 -106.855466 267 9671ft 84kts
01-Aug-20 00:53 35.042108 -106.886121 269 9886ft 95kts
01-Aug-20 00:54 35.041166 -106.922052 269 10021ft 110kts
01-Aug-20 00:55 35.040163 -106.962462 270 10101ft 121kts
01-Aug-20 00:56 35.039050 -107.006675 270 10035ft 133kts
01-Aug-20 00:57 35.037840 -107.053720 270 9988ft 132kts
01-Aug-20 00:58 35.036668 -107.099654 270 9988ft 130kts
01-Aug-20 00:59 35.035458 -107.145613 270 9988ft 130kts
01-Aug-20 01:00 35.034244 -107.191316 270 9988ft 130kts
01-Aug-20 01:01 35.032988 -107.237187 270 9989ft 130kts
01-Aug-20 01:02 35.031701 -107.283158 272 9981ft 133kts
01-Aug-20 01:03 35.030401 -107.330009 271 9985ft 133kts
01-Aug-20 01:04 35.029082 -107.376731 270 9991ft 133kts
01-Aug-20 01:05 35.027753 -107.423360 270 9995ft 133kts
01-Aug-20 01:06 35.026407 -107.469884 269 10001ft 133kts
01-Aug-20 01:07 35.025031 -107.516665 269 10006ft 132kts
01-Aug-20 01:08 35.023652 -107.563134 269 10007ft 132kts
01-Aug-20 01:09 35.022256 -107.609603 268 10007ft 132kts
01-Aug-20 01:10 35.020851 -107.656064 268 10006ft 132kts
01-Aug-20 01:11 35.019411 -107.702380 268 10006ft 131kts
01-Aug-20 01:12 35.017961 -107.748659 268 10006ft 131kts
01-Aug-20 01:13 35.016491 -107.795147 268 10006ft 131kts
01-Aug-20 01:14 35.015002 -107.841678 268 10006ft 132kts
01-Aug-20 01:15 35.013507 -107.887822 268 10006ft 132kts
01-Aug-20 01:16 35.011984 -107.934297 267 10006ft 132kts
01-Aug-20 01:17 35.010451 -107.980508 267 10006ft 132kts
01-Aug-20 01:18 35.008902 -108.026701 267 10006ft 132kts
01-Aug-20 01:19 35.007330 -108.073023 267 10006ft 132kts
01-Aug-20 01:20 35.005757 -108.118887 267 10006ft 132kts
01-Aug-20 01:21 35.004143 -108.165413 267 10006ft 132kts
01-Aug-20 01:22 35.002512 -108.211910 267 10006ft 132kts
01-Aug-20 01:23 35.000869 -108.258260 267 10005ft 132kts
01-Aug-20 01:24 34.999210 -108.304581 268 10000ft 132kts
01-Aug-20 01:25 34.997569 -108.350276 268 9995ft 132kts
01-Aug-20 01:26 34.995907 -108.395848 269 9990ft 131kts
01-Aug-20 01:27 34.994192 -108.441830 269 9986ft 131kts
01-Aug-20 01:29 34.992463 -108.487983 269 9981ft 130kts
01-Aug-20 01:30 34.990761 -108.533333 269 9980ft 130kts
01-Aug-20 01:31 34.989051 -108.578345 269 9978ft 130kts
01-Aug-20 01:32 34.987314 -108.623590 269 9976ft 129kts
01-Aug-20 01:33 34.985565 -108.668531 269 9973ft 129kts
01-Aug-20 01:34 34.983770 -108.713903 269 9970ft 129kts
01-Aug-20 01:35 34.981983 -108.759049 269 9966ft 129kts
01-Aug-20 01:36 34.980172 -108.804372 269 9961ft 129kts
01-Aug-20 01:37 34.978354 -108.849436 269 9955ft 130kts
01-Aug-20 01:38 34.976498 -108.894995 269 9950ft 130kts
01-Aug-20 01:39 34.974615 -108.940864 269 9943ft 131kts
01-Aug-20 01:40 34.972711 -108.986763 268 9936ft 131kts
01-Aug-20 01:41 34.970840 -109.030739 269 9926ft 123kts
01-Aug-20 01:42 34.969053 -109.073340 269 9919ft 121kts
01-Aug-20 01:43 34.967274 -109.115478 269 9912ft 121kts
01-Aug-20 01:43 34.965767 -109.150674 269 9906ft 121kts
01-Aug-20 01:45 34.968531 -109.199701 276 9898ft 121kts
01-Aug-20 01:46 34.971271 -109.241879 276 9897ft 121kts
01-Aug-20 01:46 34.973519 -109.276896 276 9897ft 121kts
01-Aug-20 01:48 34.976658 -109.326003 276 9897ft 121kts
01-Aug-20 01:48 34.978899 -109.361203 276 9897ft 121kts
01-Aug-20 01:50 34.982009 -109.410297 276 9897ft 121kts
01-Aug-20 01:50 34.984218 -109.445383 276 9896ft 121kts
01-Aug-20 01:51 34.986873 -109.487759 276 9896ft 121kts
01-Aug-20 01:53 34.989938 -109.536973 276 9896ft 121kts
01-Aug-20 01:53 34.992117 -109.572166 276 9896ft 121kts
01-Aug-20 01:54 34.994717 -109.614371 276 9896ft 121kts
01-Aug-20 01:55 34.997312 -109.656738 275 9897ft 121kts
01-Aug-20 01:56 34.999891 -109.699128 275 9897ft 122kts
01-Aug-20 01:57 35.002485 -109.741982 275 9897ft 122kts
01-Aug-20 01:58 35.005057 -109.784515 272 9896ft 122kts
01-Aug-20 01:59 35.007589 -109.826806 272 9896ft 121kts
01-Aug-20 02:00 35.010115 -109.869106 272 9896ft 121kts
01-Aug-20 02:01 35.012592 -109.910905 273 9896ft 120kts
01-Aug-20 02:02 35.015069 -109.953051 271 9886ft 121kts
01-Aug-20 02:03 35.017575 -109.996277 272 9871ft 124kts
01-Aug-20 02:04 35.020130 -110.040423 272 9854ft 124kts
01-Aug-20 02:05 35.022688 -110.084762 272 9836ft 124kts
01-Aug-20 02:06 35.025190 -110.128403 272 9819ft 124kts
01-Aug-20 02:07 35.027671 -110.171777 272 9803ft 124kts
01-Aug-20 02:08 35.030108 -110.214718 272 9800ft 123kts
01-Aug-20 02:09 35.032543 -110.258255 272 9798ft 123kts
01-Aug-20 02:10 35.034951 -110.301386 272 9796ft 123kts
01-Aug-20 02:11 35.037357 -110.344713 272 9795ft 123kts
01-Aug-20 02:12 35.039748 -110.388058 272 9795ft 123kts
01-Aug-20 02:13 35.042124 -110.431400 272 9795ft 123kts
01-Aug-20 02:14 35.044497 -110.474989 272 9795ft 123kts
01-Aug-20 02:15 35.046834 -110.518016 272 9795ft 123kts
01-Aug-20 02:16 35.049141 -110.560494 272 9795ft 123kts
01-Aug-20 02:17 35.051411 -110.602862 272 9795ft 122kts
01-Aug-20 02:18 35.053663 -110.645305 272 9795ft 122kts
01-Aug-20 02:19 35.055899 -110.687810 271 9795ft 122kts
01-Aug-20 02:20 35.058118 -110.730606 271 9795ft 122kts
01-Aug-20 02:21 35.060328 -110.773213 271 9795ft 122kts
01-Aug-20 02:22 35.068010 -110.815125 290 9768ft 124kts
01-Aug-20 02:23 35.081406 -110.855323 290 9768ft 124kts
01-Aug-20 02:24 35.094708 -110.895358 290 9768ft 123kts
01-Aug-20 02:25 35.107913 -110.935332 289 9768ft 122kts
01-Aug-20 02:26 35.121165 -110.975451 289 9768ft 121kts
01-Aug-20 02:27 35.133980 -111.014210 290 9795ft 118kts
01-Aug-20 02:28 35.146565 -111.052325 290 9795ft 117kts
01-Aug-20 02:29 35.158950 -111.089824 291 9796ft 116kts
01-Aug-20 02:30 35.171131 -111.126877 292 9798ft 115kts
01-Aug-20 02:31 35.183246 -111.163762 292 9828ft 113kts
01-Aug-20 02:32 35.195341 -111.200637 292 9859ft 113kts
01-Aug-20 02:33 35.207409 -111.237478 292 9890ft 113kts
01-Aug-20 02:34 35.219494 -111.274420 292 9921ft 113kts
01-Aug-20 02:35 35.231477 -111.311082 292 9951ft 113kts
01-Aug-20 02:36 35.243425 -111.347700 292 9982ft 112kts
01-Aug-20 02:37 35.255451 -111.384590 292 9997ft 113kts
01-Aug-20 02:38 35.267946 -111.421821 293 9996ft 114kts
01-Aug-20 02:39 35.280893 -111.458897 293 9996ft 114kts
01-Aug-20 02:40 35.294777 -111.495364 284 9997ft 113kts
01-Aug-20 02:41 35.284349 -111.533442 221 9992ft 120kts
01-Aug-20 02:42 35.249831 -111.542062 212 9793ft 132kts
01-Aug-20 02:43 35.221999 -111.570908 227 9120ft 125kts
01-Aug-20 02:44 35.196459 -111.602047 227 8422ft 124kts
01-Aug-20 02:45 35.173771 -111.629777 230 7794ft 93kts
01-Aug-20 02:46 35.156059 -111.651665 227 7306ft 85kts
01-Aug-20 02:47 35.141021 -111.668487 220 6995ft 57kts
01-Aug-20 02:48 35.134782 -111.677066 322 6995ft 14kts
01-Aug-20 02:49 35.135521 -111.677321 40 6995ft 0kts
01-Aug-20 02:50 35.135521 -111.677321 40 6995ft 0kts
01-Aug-20 02:51 35.135521 -111.677321 40 6995ft 0kts

Navigation Log

Ident Type
Flight plan parsing failed, navigation log unavailable